Time;durP1;ratioP1;P1;durP2;ratioP2;P2;SDS_P1;SDS_P2;PMS_P1;PMS_P2;Temp;Humidity;BMP_temperature;BMP_pressure;BME280_temperature;BME280_humidity;BME280_pressure;Samples;Min_cycle;Max_cycle;Signal;HPM_P1;HPM_P2
2023/09/15 00:02:39;;;;;;;4.97;4.57;;;15.50;99.90;;;;;;6228477;23;20460;-79
2023/09/15 00:05:28;;;;;;;4.80;4.40;;;15.50;99.90;;;;;;6223552;23;20434;-79
2023/09/15 00:08:19;;;;;;;5.67;4.70;;;15.40;99.90;;;;;;6221857;23;20486;-78
2023/09/15 00:11:17;;;;;;;4.70;4.30;;;15.50;99.90;;;;;;6219624;23;20742;-78
2023/09/15 00:14:05;;;;;;;4.80;4.40;;;15.40;99.90;;;;;;6219315;23;20513;-78
2023/09/15 00:16:43;;;;;;;6.43;4.83;;;15.50;99.90;;;;;;6220080;23;21168;-81
2023/09/15 00:19:35;;;;;;;4.80;4.40;;;15.50;99.90;;;;;;6221194;23;20898;-81
2023/09/15 00:23:03;;;;;;;;;;;;;;;;;;;;;
2023/09/15 00:25:54;;;;;;;5.83;4.80;;;15.40;99.90;;;;;;6220350;23;20425;-78
2023/09/15 00:29:20;;;;;;;4.80;4.40;;;15.30;99.90;;;;;;6221440;23;20450;-78
2023/09/15 00:32:22;;;;;;;4.57;4.17;;;15.40;99.90;;;;;;6222130;23;20402;-79
2023/09/15 00:38:26;;;;;;;4.37;3.97;;;15.30;99.90;;;;;;6195818;23;20416;-79
2023/09/15 00:41:14;;;;;;;4.70;4.13;;;15.30;99.90;;;;;;6224853;23;20494;-78
2023/09/15 00:43:52;;;;;;;4.60;4.27;;;15.20;99.90;;;;;;6222156;23;20445;-78
2023/09/15 00:46:54;;;;;;;4.90;3.93;;;15.10;99.90;;;;;;6220663;23;20516;-78
2023/09/15 00:49:42;;;;;;;4.53;4.20;;;15.10;99.90;;;;;;6222631;23;20420;-80
2023/09/15 00:52:17;;;;;;;4.83;4.27;;;15.10;99.90;;;;;;6225956;23;20383;-79
2023/09/15 00:55:19;;;;;;;4.60;4.30;;;15.10;99.90;;;;;;6223214;23;20464;-79
2023/09/15 00:58:24;;;;;;;4.23;3.93;;;15.00;99.90;;;;;;6215723;23;20441;-78
2023/09/15 01:01:06;;;;;;;4.40;4.00;;;15.00;99.90;;;;;;6186847;23;20486;-80
2023/09/15 01:07:13;;;;;;;4.40;4.10;;;15.00;99.90;;;;;;6226760;23;20403;-79
2023/09/15 01:09:57;;;;;;;4.57;4.17;;;14.90;99.90;;;;;;6208632;23;20421;-79
2023/09/15 01:12:46;;;;;;;4.97;4.57;;;14.90;99.90;;;;;;6224851;23;20480;-78
2023/09/15 01:15:49;;;;;;;4.63;4.30;;;14.90;99.90;;;;;;6222927;23;20498;-79
2023/09/15 01:18:45;;;;;;;5.03;4.40;;;14.80;99.90;;;;;;6223806;23;20905;-79
2023/09/15 01:22:17;;;;;;;;;;;;;;;;;;;;;
2023/09/15 01:25:21;;;;;;;4.90;3.93;;;15.00;99.90;;;;;;6221138;23;20430;-78
2023/09/15 01:28:39;;;;;;;4.60;4.30;;;14.80;99.90;;;;;;6190473;23;20417;-79
2023/09/15 01:31:22;;;;;;;4.23;3.83;;;14.70;99.90;;;;;;6215947;23;20445;-80
2023/09/15 01:34:13;;;;;;;4.87;4.10;;;14.30;99.90;;;;;;6224394;23;20534;-79
2023/09/15 01:36:53;;;;;;;4.70;4.30;;;14.70;99.90;;;;;;6225984;23;20476;-78
2023/09/15 01:39:30;;;;;;;5.23;4.20;;;14.60;99.90;;;;;;6226528;23;20413;-80
2023/09/15 01:42:06;;;;;;;5.77;4.60;;;14.50;99.90;;;;;;6227214;23;20474;-78
2023/09/15 01:44:46;;;;;;;4.53;4.23;;;14.50;99.90;;;;;;6227913;23;20442;-78
2023/09/15 01:47:27;;;;;;;5.33;4.83;;;14.50;99.90;;;;;;6230570;23;20889;-78
2023/09/15 01:50:14;;;;;;;6.93;4.70;;;14.40;99.90;;;;;;6230029;23;20426;-78
2023/09/15 01:53:11;;;;;;;5.20;4.70;;;14.40;99.90;;;;;;6232961;23;20416;-77
2023/09/15 01:56:08;;;;;;;4.80;4.40;;;14.40;99.90;;;;;;6233402;23;20521;-78
2023/09/15 01:58:53;;;;;;;4.20;3.80;;;14.50;99.90;;;;;;6234465;23;20413;-77
2023/09/15 02:01:55;;;;;;;4.77;4.37;;;14.40;99.90;;;;;;6234972;23;20407;-80
2023/09/15 02:05:08;;;;;;;4.40;4.10;;;14.40;99.90;;;;;;6235381;23;20524;-80
2023/09/15 02:07:55;;;;;;;4.90;4.50;;;14.30;99.90;;;;;;6224624;23;20454;-79
2023/09/15 02:10:35;;;;;;;4.60;4.30;;;14.30;99.90;;;;;;6233967;23;20421;-79
2023/09/15 02:13:13;;;;;;;5.13;3.93;;;14.30;99.90;;;;;;6233344;23;20461;-78
2023/09/15 02:16:11;;;;;;;4.83;4.30;;;14.20;99.90;;;;;;5078604;28;21104;-79
2023/09/15 02:19:00;;;;;;;5.00;4.50;;;14.20;99.90;;;;;;5064936;28;20445;-78
2023/09/15 02:25:13;;;;;;;;;;;;;;;;;;;;;
2023/09/15 02:27:57;;;;;;;6.87;4.40;;;14.10;99.90;;;;;;5072673;28;20426;-77
2023/09/15 02:30:47;;;;;;;4.90;4.43;;;14.10;99.90;;;;;;5072054;28;20427;-77
2023/09/15 02:33:26;;;;;;;4.80;4.40;;;14.10;99.90;;;;;;5072799;28;20450;-78
2023/09/15 02:36:33;;;;;;;9.47;4.73;;;14.00;99.90;;;;;;5069687;28;20501;-79
2023/09/15 02:39:24;;;;;;;5.30;4.90;;;14.00;99.90;;;;;;5032045;28;20533;-79
2023/09/15 02:45:14;;;;;;;7.20;4.70;;;14.00;99.90;;;;;;5043881;28;20894;-79
2023/09/15 02:51:00;;;;;;;4.90;4.50;;;13.90;99.90;;;;;;5054970;28;20464;-79
2023/09/15 02:53:36;;;;;;;5.37;4.87;;;13.90;99.90;;;;;;5056583;28;20541;-78
2023/09/15 02:56:10;;;;;;;5.33;4.83;;;13.90;99.90;;;;;;5056774;28;20437;-78
2023/09/15 02:58:51;;;;;;;5.40;4.87;;;13.90;99.90;;;;;;5056764;28;20461;-78
2023/09/15 03:01:36;;;;;;;5.53;4.87;;;13.90;99.90;;;;;;5061234;28;20449;-79
2023/09/15 03:04:20;;;;;;;5.30;4.90;;;13.80;99.90;;;;;;5037504;28;20558;-79
2023/09/15 03:07:02;;;;;;;6.33;4.80;;;13.90;99.90;;;;;;5043949;28;20458;-78
2023/09/15 03:09:49;;;;;;;4.87;4.37;;;13.90;99.90;;;;;;5046464;28;20518;-78
2023/09/15 03:12:53;;;;;;;4.97;4.50;;;13.80;99.90;;;;;;5044559;28;20485;-78
2023/09/15 03:15:52;;;;;;;5.10;4.70;;;13.80;99.90;;;;;;5061714;28;20473;-79
2023/09/15 03:18:46;;;;;;;4.90;4.50;;;13.80;99.90;;;;;;5052249;28;20445;-79
2023/09/15 03:28:17;;;;;;;5.40;4.90;;;13.70;99.90;;;;;;4983154;28;20449;-79
2023/09/15 03:31:24;;;;;;;6.50;5.90;;;13.60;99.90;;;;;;5016710;28;20450;-79
2023/09/15 03:34:02;;;;;;;6.60;5.43;;;13.60;99.90;;;;;;5043431;28;20470;-78
2023/09/15 03:36:41;;;;;;;5.77;5.17;;;13.60;99.90;;;;;;5043362;28;20553;-78
2023/09/15 03:39:22;;;;;;;7.60;4.73;;;13.40;99.90;;;;;;5044188;28;20454;-80
2023/09/15 03:42:01;;;;;;;6.03;5.30;;;13.50;99.90;;;;;;5042480;28;20458;-78
2023/09/15 03:45:08;;;;;;;5.37;4.87;;;13.50;99.90;;;;;;5043370;28;20470;-79
2023/09/15 03:51:26;;;;;;;6.50;5.00;;;13.70;99.90;;;;;;5041363;28;20430;-78
2023/09/15 03:54:22;;;;;;;6.40;5.73;;;13.40;99.90;;;;;;5042228;28;20470;-80
2023/09/15 03:57:32;;;;;;;6.50;5.87;;;13.40;99.90;;;;;;5044150;28;20473;-78
2023/09/15 04:00:22;;;;;;;5.40;4.90;;;13.40;99.90;;;;;;5048050;28;20447;-77
2023/09/15 04:06:20;;;;;;;5.17;4.70;;;13.40;99.90;;;;;;5063085;28;20449;-79
2023/09/15 04:12:24;;;;;;;6.33;5.67;;;13.40;99.90;;;;;;5050428;28;20441;-77
2023/09/15 04:15:00;;;;;;;5.50;5.00;;;13.40;99.90;;;;;;5061286;28;20478;-79
2023/09/15 04:17:56;;;;;;;5.23;4.83;;;13.40;99.90;;;;;;5060379;28;20540;-79
2023/09/15 04:20:35;;;;;;;6.50;5.90;;;13.40;99.90;;;;;;5061814;28;20441;-79
2023/09/15 04:23:22;;;;;;;;;;;;;;;;;;;;;
2023/09/15 04:26:38;;;;;;;6.17;5.57;;;13.40;99.90;;;;;;5067973;28;20454;-81
2023/09/15 04:29:29;;;;;;;6.50;5.90;;;13.40;99.90;;;;;;5069563;28;20473;-78
2023/09/15 04:32:30;;;;;;;6.70;5.87;;;13.50;99.90;;;;;;5073466;28;20529;-79
2023/09/15 04:35:00;;;;;;;6.03;5.53;;;13.40;99.90;;;;;;5073856;28;20544;-78
2023/09/15 04:37:31;;;;;;;5.73;4.90;;;13.40;99.90;;;;;;5071333;28;20438;-78
2023/09/15 04:40:16;;;;;;;9.13;5.60;;;13.20;99.90;;;;;;5068264;28;20456;-80
2023/09/15 04:43:16;;;;;;;8.17;7.37;;;13.50;99.90;;;;;;5065066;28;20453;-79
2023/09/15 04:45:56;;;;;;;11.43;9.17;;;13.50;99.90;;;;;;5059636;28;20537;-78
2023/09/15 04:48:44;;;;;;;;;;;;;;;;;;;;;
2023/09/15 04:51:23;;;;;;;6.40;5.80;;;13.60;99.90;;;;;;5066345;28;20441;-78
2023/09/15 04:54:15;;;;;;;6.43;5.80;;;13.70;99.90;;;;;;5065219;28;20965;-79
2023/09/15 04:56:57;;;;;;;6.17;5.67;;;13.70;99.90;;;;;;5062955;28;20466;-80
2023/09/15 04:59:40;;;;;;;8.53;5.63;;;13.60;99.90;;;;;;5063939;28;20453;-79
2023/09/15 05:02:46;;;;;;;6.57;5.87;;;13.50;99.90;;;;;;5058786;28;20452;-81
2023/09/15 05:05:38;;;;;;;6.67;5.90;;;13.60;99.90;;;;;;5073321;28;20468;-79
2023/09/15 05:08:16;;;;;;;6.90;6.30;;;13.60;99.90;;;;;;5077528;28;20428;-81
2023/09/15 05:10:59;;;;;;;6.47;5.97;;;13.60;99.90;;;;;;5069506;28;20453;-79
2023/09/15 05:13:36;;;;;;;9.40;5.97;;;13.50;99.90;;;;;;5067526;28;20542;-78
2023/09/15 05:16:19;;;;;;;6.10;5.50;;;13.50;99.90;;;;;;5058697;28;20782;-81
2023/09/15 05:18:58;;;;;;;6.70;6.20;;;13.50;99.90;;;;;;5059060;28;20441;-78
2023/09/15 05:21:37;;;;;;;6.97;6.30;;;13.60;99.90;;;;;;5059153;28;20496;-79
2023/09/15 05:24:16;;;;;;;8.50;6.43;;;13.50;99.90;;;;;;5056514;28;20454;-80
2023/09/15 05:26:51;;;;;;;7.20;6.60;;;13.40;99.90;;;;;;5058209;28;20450;-80
2023/09/15 05:29:25;;;;;;;6.27;5.67;;;13.40;99.90;;;;;;5057907;28;20954;-80
2023/09/15 05:32:03;;;;;;;7.67;7.07;;;13.50;99.90;;;;;;5058344;28;20492;-78
2023/09/15 05:34:39;;;;;;;7.97;7.17;;;13.50;99.90;;;;;;5056236;28;20469;-80
2023/09/15 05:37:38;;;;;;;12.73;8.63;;;13.50;99.90;;;;;;5055405;28;20454;-79
2023/09/15 05:40:33;;;;;;;9.63;7.57;;;13.50;99.90;;;;;;5058292;28;20460;-79
2023/09/15 05:43:12;;;;;;;47.13;29.20;;;13.60;99.90;;;;;;5056637;28;20931;-80
2023/09/15 05:45:46;;;;;;;324.63;238.77;;;13.60;99.90;;;;;;5056037;28;20454;-79
2023/09/15 05:48:31;;;;;;;14.80;11.67;;;13.60;99.90;;;;;;5055817;28;20536;-81
2023/09/15 05:51:18;;;;;;;13.30;10.63;;;13.70;99.90;;;;;;5055704;28;20525;-80
2023/09/15 05:53:55;;;;;;;9.70;7.10;;;13.70;99.90;;;;;;5054328;28;20516;-78
2023/09/15 05:56:51;;;;;;;9.43;6.87;;;13.80;99.90;;;;;;5055103;28;20473;-79
2023/09/15 05:59:33;;;;;;;7.87;7.00;;;13.90;99.90;;;;;;5056361;28;20457;-78
2023/09/15 06:02:14;;;;;;;7.23;6.47;;;13.90;99.90;;;;;;5055550;28;20453;-79
2023/09/15 06:05:02;;;;;;;9.83;7.47;;;14.00;99.90;;;;;;5056225;28;20493;-79
2023/09/15 06:07:33;;;;;;;7.37;6.47;;;13.70;99.90;;;;;;5058143;28;20453;-80
2023/09/15 06:10:11;;;;;;;11.20;7.40;;;14.20;99.90;;;;;;5056733;28;20465;-79
2023/09/15 06:12:55;;;;;;;9.03;7.43;;;14.30;99.90;;;;;;5060984;28;20543;-79
2023/09/15 06:15:27;;;;;;;7.47;6.77;;;14.00;99.90;;;;;;5060199;28;20478;-78
2023/09/15 06:18:05;;;;;;;9.20;6.70;;;14.40;99.90;;;;;;5060731;28;20453;-79
2023/09/15 06:20:36;;;;;;;7.37;5.83;;;14.40;99.90;;;;;;5060935;28;20460;-80
2023/09/15 06:23:15;;;;;;;8.10;7.30;;;14.50;99.90;;;;;;5060069;28;20684;-82
2023/09/15 06:25:55;;;;;;;11.60;8.67;;;14.50;99.90;;;;;;5065918;28;20472;-78
2023/09/15 06:28:50;;;;;;;8.63;7.70;;;14.70;99.90;;;;;;5068041;28;20484;-75
2023/09/15 06:31:34;;;;;;;9.57;7.00;;;14.80;99.90;;;;;;5073520;28;20442;-79
2023/09/15 06:34:16;;;;;;;8.13;7.00;;;14.90;99.90;;;;;;5068431;28;20479;-81
2023/09/15 06:39:58;;;;;;;7.70;7.00;;;15.00;99.90;;;;;;5024594;28;20473;-79
2023/09/15 06:42:39;;;;;;;8.27;7.37;;;15.00;99.90;;;;;;5066167;28;20468;-79
2023/09/15 06:45:24;;;;;;;8.07;7.27;;;15.00;99.90;;;;;;5067606;28;20552;-78
2023/09/15 06:48:11;;;;;;;9.47;7.47;;;15.10;99.90;;;;;;5065222;28;20445;-79
2023/09/15 06:54:04;;;;;;;7.50;6.83;;;15.30;99.90;;;;;;5059853;28;20976;-78
2023/09/15 06:56:39;;;;;;;7.97;7.17;;;15.40;99.90;;;;;;5065826;28;20503;-78
2023/09/15 06:59:25;;;;;;;11.03;7.40;;;15.50;99.90;;;;;;5065769;28;20476;-78
2023/09/15 07:02:09;;;;;;;8.03;7.20;;;15.20;99.90;;;;;;5068354;28;20456;-79
2023/09/15 07:04:43;;;;;;;9.93;7.73;;;;;;;;;;5064842;28;20473;-78
2023/09/15 07:07:20;;;;;;;9.23;8.37;;;;;;;;;;5067832;28;20449;-80
2023/09/15 07:09:54;;;;;;;11.23;7.70;;;;;;;;;;5068903;28;20445;-78
2023/09/15 07:12:28;;;;;;;10.53;7.93;;;;;;;;;;5066466;28;20454;-79
2023/09/15 07:15:04;;;;;;;8.17;7.47;;;;;;;;;;5062997;28;20476;-78
2023/09/15 07:17:42;;;;;;;10.33;6.87;;;;;;;;;;5064804;28;20543;-78
2023/09/15 07:20:14;;;;;;;10.17;7.67;;;;;;;;;;5068425;28;20456;-80
2023/09/15 07:23:00;;;;;;;9.97;8.67;;;;;;;;;;5059352;28;20544;-78
2023/09/15 07:25:29;;;;;;;9.50;8.60;;;;;;;;;;5058954;28;20530;-78
2023/09/15 07:28:03;;;;;;;12.80;7.73;;;;;;;;;;5058968;28;20491;-78
2023/09/15 07:30:34;;;;;;;9.23;8.50;;;;;;;;;;5060441;28;20497;-78
2023/09/15 07:33:16;;;;;;;10.67;9.57;;;;;;;;;;5065617;28;20453;-78
2023/09/15 07:35:59;;;;;;;9.73;8.13;;;;;;;;;;5061696;28;20477;-78
2023/09/15 07:38:53;;;;;;;9.93;8.03;;;;;;;;;;5059658;28;20454;-78
2023/09/15 07:47:35;;;;;;;8.90;8.20;;;;;;;;;;5024791;28;20464;-78
2023/09/15 07:50:23;;;;;;;12.87;7.77;;;;;;;;;;5059681;28;20445;-79
2023/09/15 07:52:59;;;;;;;10.27;7.90;;;;;;;;;;5063812;28;20788;-79
2023/09/15 07:55:32;;;;;;;11.73;8.57;;;;;;;;;;5062792;28;20481;-81
2023/09/15 07:58:12;;;;;;;8.67;7.80;;;;;;;;;;5063377;28;20458;-79
2023/09/15 08:00:57;;;;;;;9.83;8.50;;;18.00;99.90;;;;;;5064210;28;20454;-80
2023/09/15 08:03:27;;;;;;;11.67;10.47;;;18.10;99.90;;;;;;5062023;28;20476;-79
2023/09/15 08:06:29;;;;;;;10.20;8.97;;;18.20;99.90;;;;;;5068328;28;20449;-77
2023/09/15 08:09:16;;;;;;;8.87;8.07;;;18.30;99.90;;;;;;5059270;28;20535;-78
2023/09/15 08:11:59;;;;;;;9.57;8.20;;;18.40;99.90;;;;;;5074084;28;20441;-77
2023/09/15 08:57:25;;;;;;;8.33;7.20;;;21.10;99.90;;;;;;5001265;28;20475;-81
2023/09/15 09:00:08;;;;;;;8.60;7.90;;;21.30;99.90;;;;;;5024477;28;20446;-81
2023/09/15 09:02:52;;;;;;;7.60;6.90;;;21.50;99.90;;;;;;5020122;28;20451;-79
2023/09/15 09:08:28;;;;;;;7.70;7.00;;;22.10;99.90;;;;;;5021675;28;20447;-79
2023/09/15 09:11:14;;;;;;;8.00;7.30;;;22.10;99.90;;;;;;5020951;28;20458;-79
2023/09/15 09:14:27;;;;;;;;;;;;;;;;;;;;;
2023/09/15 09:17:32;;;;;;;7.63;6.97;;;21.80;99.90;;;;;;5019606;28;20543;-79
2023/09/15 09:20:50;;;;;;;8.13;7.43;;;22.40;99.90;;;;;;5023925;28;20453;-79
2023/09/15 09:27:26;;;;;;;7.63;6.70;;;23.10;99.90;;;;;;5007265;28;20468;-79
2023/09/15 09:30:01;;;;;;;8.93;7.70;;;23.50;99.90;;;;;;4998915;28;20466;-79
2023/09/15 10:05:18;;;;;;;8.27;7.57;;;24.00;99.90;;;;;;4745442;29;20496;-81
2023/09/15 10:08:03;;;;;;;8.73;6.97;;;24.20;99.90;;;;;;4868602;29;20464;-80
2023/09/15 10:11:00;;;;;;;7.80;7.20;;;24.20;99.90;;;;;;5011422;28;20507;-80
2023/09/15 10:13:43;;;;;;;7.93;7.17;;;24.90;99.90;;;;;;5043010;28;20466;-81
2023/09/15 10:16:25;;;;;;;6.67;6.17;;;25.00;99.90;;;;;;5045476;28;20505;-81
2023/09/15 10:19:08;;;;;;;7.60;6.90;;;25.40;99.90;;;;;;5046397;28;20455;-81
2023/09/15 10:21:46;;;;;;;6.77;6.27;;;25.50;99.90;;;;;;5052741;28;20965;-79
2023/09/15 10:24:37;;;;;;;6.23;5.73;;;25.90;99.90;;;;;;5049827;28;20839;-80
2023/09/15 10:27:17;;;;;;;8.10;6.43;;;26.30;99.90;;;;;;5034106;28;20502;-83
2023/09/15 10:29:53;;;;;;;6.97;6.37;;;26.40;99.90;;;;;;5046361;28;20462;-80
2023/09/15 10:32:39;;;;;;;6.70;6.20;;;26.70;99.90;;;;;;5042049;28;20448;-79
2023/09/15 10:41:58;;;;;;;7.17;6.67;;;26.20;99.90;;;;;;5035020;28;20948;-82
2023/09/15 10:45:15;;;;;;;6.83;6.23;;;26.20;99.90;;;;;;5043693;28;20501;-81
2023/09/15 10:51:35;;;;;;;6.40;6.00;;;;;;;;;;5046541;28;20565;-82
2023/09/15 10:54:30;;;;;;;6.67;6.17;;;27.30;99.90;;;;;;5051049;28;20462;-79
2023/09/15 10:57:10;;;;;;;6.77;6.27;;;27.50;99.90;;;;;;5053435;28;20470;-81
2023/09/15 10:59:48;;;;;;;6.00;5.50;;;27.90;99.90;;;;;;5050473;28;20446;-80
2023/09/15 11:02:34;;;;;;;6.27;5.43;;;27.90;99.90;;;;;;5054521;28;20468;-81
2023/09/15 11:08:41;;;;;;;6.20;5.70;;;;;;;;;;5030214;28;20435;-79
2023/09/15 11:11:49;;;;;;;5.40;5.10;;;;;;;;;;5033055;28;20447;-80
2023/09/15 11:20:14;;;;;;;6.30;5.80;;;;;;;;;;5028080;28;20427;-80
2023/09/15 11:22:53;;;;;;;6.20;5.60;;;;;;;;;;5030047;28;20450;-79
2023/09/15 11:25:35;;;;;;;6.00;5.57;;;;;;;;;;5022093;28;20498;-81
2023/09/15 11:28:17;;;;;;;6.07;5.50;;;;;;;;;;5020629;28;20952;-81
2023/09/15 11:30:52;;;;;;;6.47;5.87;;;;;;;;;;5022054;28;20979;-81
2023/09/15 11:33:30;;;;;;;5.70;5.30;;;;;;;;;;5019715;28;20443;-80
2023/09/15 11:38:55;;;;;;;5.50;5.10;;;;;;;;;;5020911;28;20432;-83
2023/09/15 11:41:36;;;;;;;6.03;5.53;;;;;;;;;;5019331;28;20451;-80
2023/09/15 11:44:12;;;;;;;5.70;5.30;;;;;;;;;;5019249;28;20521;-80
2023/09/15 11:46:43;;;;;;;5.13;4.80;;;;;;;;;;5019471;28;20497;-79
2023/09/15 11:49:31;;;;;;;5.90;5.50;;;;;;;;;;5019348;28;20451;-82
2023/09/15 11:52:05;;;;;;;5.20;4.80;;;;;;;;;;5019298;28;20447;-82
2023/09/15 11:57:24;;;;;;;4.97;4.60;;;;;;;;;;5015424;28;20533;-82
2023/09/15 11:59:57;;;;;;;5.40;5.00;;;;;;;;;;5016691;28;20459;-79
2023/09/15 12:02:53;;;;;;;6.00;5.47;;;;;;;;;;5016575;28;20451;-80
2023/09/15 12:05:29;;;;;;;5.70;5.03;;;;;;;;;;5016694;28;20475;-78
2023/09/15 12:08:07;;;;;;;5.10;4.70;;;;;;;;;;5016575;28;20494;-81
2023/09/15 12:10:39;;;;;;;4.17;3.97;;;;;;;;;;5017080;28;20450;-80
2023/09/15 12:13:11;;;;;;;4.97;4.47;;;;;;;;;;5016674;28;20462;-79
2023/09/15 12:16:05;;;;;;;5.83;4.30;;;;;;;;;;5015856;28;20522;-79
2023/09/15 12:21:38;;;;;;;4.50;4.17;;;;;;;;;;5029395;28;20971;-80
2023/09/15 12:27:20;;;;;;;4.37;4.07;;;;;;;;;;5027197;28;20439;-79
2023/09/15 12:29:56;;;;;;;5.20;4.80;;;;;;;;;;5030180;28;20452;-79
2023/09/15 12:32:57;;;;;;;4.90;4.60;;;;;;;;;;5018589;28;20447;-79
2023/09/15 12:35:35;;;;;;;7.60;4.30;;;;;;;;;;5029401;28;20483;-79
2023/09/15 12:38:18;;;;;;;6.30;4.80;;;;;;;;;;5031193;28;20481;-81
2023/09/15 12:41:02;;;;;;;4.70;4.30;;;;;;;;;;5027956;28;20482;-82
2023/09/15 12:46:37;;;;;;;4.00;3.70;;;;;;;;;;5026161;28;20451;-80
2023/09/15 12:52:29;;;;;;;3.37;3.17;;;;;;;;;;5028535;28;20436;-77
2023/09/15 13:01:05;;;;;;;3.60;3.40;;;;;;;;;;5034208;28;20442;-81
2023/09/15 13:10:04;;;;;;;3.60;3.40;;;;;;;;;;5023061;28;20488;-81
2023/09/15 13:12:52;;;;;;;4.47;4.17;;;;;;;;;;5018608;28;20481;-80
2023/09/15 13:15:30;;;;;;;3.90;3.67;;;;;;;;;;5032541;28;20493;-79
2023/09/15 13:21:22;;;;;;;4.13;3.83;;;;;;;;;;5022220;28;20485;-78
2023/09/15 13:23:57;;;;;;;3.90;3.70;;;;;;;;;;5021864;28;20482;-81
2023/09/15 13:26:33;;;;;;;4.67;4.37;;;;;;;;;;5021323;28;20451;-81
2023/09/15 13:29:19;;;;;;;5.03;4.57;;;;;;;;;;5021646;28;20482;-80
2023/09/15 13:31:53;;;;;;;5.40;4.90;;;;;;;;;;5019560;28;20484;-81
2023/09/15 13:34:30;;;;;;;5.00;4.60;;;;;;;;;;5018619;28;20471;-80
2023/09/15 13:37:13;;;;;;;4.60;4.30;;;;;;;;;;5018145;28;20863;-79
2023/09/15 13:39:51;;;;;;;4.87;4.57;;;;;;;;;;5020113;28;20486;-79
2023/09/15 13:42:52;;;;;;;4.70;4.30;;;;;;;;;;5019556;28;20891;-83
2023/09/15 14:01:15;;;;;;;4.50;4.20;;;;;;;;;;4786515;29;20840;-81
2023/09/15 14:12:42;;;;;;;5.30;4.83;;;;;;;;;;5017892;28;20519;-80
2023/09/15 14:15:19;;;;;;;5.10;4.60;;;;;;;;;;5016904;28;20471;-79
2023/09/15 14:18:04;;;;;;;5.40;5.07;;;;;;;;;;5016628;28;20545;-78
2023/09/15 14:20:54;;;;;;;5.20;4.80;;;;;;;;;;5015457;28;21010;-80
2023/09/15 14:23:33;;;;;;;5.13;4.83;;;;;;;;;;5015046;28;20458;-81
2023/09/15 14:26:13;;;;;;;5.17;4.77;;;;;;;;;;5014463;28;20443;-79
2023/09/15 14:29:01;;;;;;;;;;;;;;;;;;;;;
2023/09/15 14:34:47;;;;;;;5.20;4.80;;;;;;;;;;5010864;28;20471;-79
2023/09/15 14:37:43;;;;;;;5.83;5.20;;;;;;;;;;5014408;28;20479;-78
2023/09/15 14:43:40;;;;;;;5.30;4.90;;;;;;;;;;5015360;28;20439;-81
2023/09/15 14:46:31;;;;;;;5.13;4.77;;;;;;;;;;5014442;28;20448;-79
2023/09/15 14:49:17;;;;;;;5.80;5.47;;;;;;;;;;5015013;28;20447;-81
2023/09/15 14:55:12;;;;;;;6.10;4.90;;;;;;;;;;5013582;28;20471;-81
2023/09/15 15:04:33;;;;;;;5.87;5.40;;;;;;;;;;5019694;28;20455;-80
2023/09/15 15:10:23;;;;;;;5.53;5.13;;;;;;;;;;4974083;28;20431;-80
2023/09/15 15:18:57;;;;;;;7.20;6.03;;;;;;;;;;5021221;28;20488;-80
2023/09/15 15:21:45;;;;;;;5.10;4.80;;;;;;;;;;5022352;28;20471;-80
2023/09/15 15:24:25;;;;;;;5.67;5.27;;;;;;;;;;5023484;28;20501;-79
2023/09/15 15:27:13;;;;;;;5.70;5.40;;;;;;;;;;5022852;28;20530;-81
2023/09/15 15:29:48;;;;;;;5.03;4.73;;;;;;;;;;5021773;28;20455;-81
2023/09/15 15:32:34;;;;;;;5.90;5.47;;;;;;;;;;5021205;28;20455;-78
2023/09/15 15:35:10;;;;;;;5.60;5.17;;;;;;;;;;5020189;28;20510;-80
2023/09/15 15:37:48;;;;;;;5.87;5.47;;;;;;;;;;5019542;28;20482;-80
2023/09/15 15:40:30;;;;;;;5.03;4.53;;;;;;;;;;5019569;28;20455;-81
2023/09/15 15:43:05;;;;;;;5.27;4.87;;;;;;;;;;5019248;28;20459;-79
2023/09/15 15:45:45;;;;;;;5.87;5.47;;;;;;;;;;5017972;28;20540;-79
2023/09/15 15:48:32;;;;;;;6.20;5.80;;;;;;;;;;5017450;28;20447;-79
2023/09/15 15:51:20;;;;;;;6.30;5.80;;;;;;;;;;5018433;28;20443;-79
2023/09/15 15:57:18;;;;;;;5.93;5.53;;;30.10;95.10;;;;;;5018870;28;20455;-82
2023/09/15 16:00:11;;;;;;;;;;;;;;;;;;;;;
2023/09/15 16:06:21;;;;;;;6.53;6.03;;;29.80;95.30;;;;;;5020920;28;20890;-82
2023/09/15 16:09:16;;;;;;;7.33;6.83;;;29.60;95.60;;;;;;5024517;28;20456;-81
2023/09/15 16:11:56;;;;;;;6.53;6.03;;;29.40;96.10;;;;;;5025440;28;20455;-81
2023/09/15 16:14:45;;;;;;;6.63;6.13;;;29.40;96.20;;;;;;5027711;28;20501;-80
2023/09/15 16:17:28;;;;;;;6.53;5.80;;;29.10;96.60;;;;;;5027205;28;20509;-82
2023/09/15 16:20:19;;;;;;;5.80;5.40;;;29.00;96.80;;;;;;5027560;28;20447;-80
2023/09/15 16:22:55;;;;;;;6.60;5.53;;;28.70;97.00;;;;;;5013990;28;20539;-80
2023/09/15 16:25:57;;;;;;;5.60;5.30;;;28.60;97.30;;;;;;5024283;28;20475;-78
2023/09/15 16:29:18;;;;;;;6.20;5.80;;;28.50;97.30;;;;;;5019788;28;20447;-79
2023/09/15 16:31:52;;;;;;;6.73;6.23;;;28.20;98.00;;;;;;5024500;28;20538;-79
2023/09/15 16:37:29;;;;;;;6.73;6.23;;;27.80;99.20;;;;;;5034621;28;20455;-81
2023/09/15 16:40:09;;;;;;;6.73;6.23;;;27.70;99.60;;;;;;5038729;28;20466;-79
2023/09/15 16:42:54;;;;;;;7.30;6.70;;;27.50;99.90;;;;;;5038256;28;20503;-79
2023/09/15 16:45:39;;;;;;;7.13;6.53;;;27.30;99.90;;;;;;5038436;28;20481;-80
2023/09/15 16:48:30;;;;;;;6.70;6.23;;;27.20;99.90;;;;;;5038129;28;20439;-80
2023/09/15 16:54:27;;;;;;;12.80;7.70;;;26.90;99.90;;;;;;5033226;28;20454;-82
2023/09/15 16:57:07;;;;;;;8.40;6.70;;;26.80;99.90;;;;;;5036798;28;20435;-79
2023/09/15 17:00:08;;;;;;;7.77;7.10;;;26.40;99.90;;;;;;5037040;28;20550;-81
2023/09/15 17:03:15;;;;;;;8.43;7.43;;;26.50;99.90;;;;;;5031145;28;20574;-79
2023/09/15 17:05:54;;;;;;;11.27;10.37;;;26.50;99.90;;;;;;5032131;28;20455;-81
2023/09/15 17:08:53;;;;;;;20.93;18.93;;;26.30;99.90;;;;;;5016572;28;20466;-80
2023/09/15 17:11:47;;;;;;;8.40;7.70;;;26.10;99.90;;;;;;5026689;28;20478;-81
2023/09/15 17:14:33;;;;;;;7.70;7.20;;;26.00;99.90;;;;;;5025987;28;20471;-81
2023/09/15 17:17:14;;;;;;;7.03;6.53;;;25.90;99.90;;;;;;5032790;28;20474;-81
2023/09/15 17:20:14;;;;;;;7.77;7.17;;;25.80;99.90;;;;;;5029733;28;20479;-82
2023/09/15 17:23:05;;;;;;;8.43;7.83;;;25.70;99.90;;;;;;5026816;28;20451;-80
2023/09/15 17:25:43;;;;;;;8.03;7.33;;;25.70;99.90;;;;;;5035099;28;20467;-82
2023/09/15 17:28:32;;;;;;;7.93;7.33;;;25.80;99.90;;;;;;5033227;28;20451;-79
2023/09/15 17:31:10;;;;;;;7.50;7.00;;;25.50;99.90;;;;;;5032335;28;20478;-81
2023/09/15 17:33:47;;;;;;;8.00;7.40;;;25.30;99.90;;;;;;5031133;28;20459;-81
2023/09/15 17:36:42;;;;;;;7.63;7.03;;;25.20;99.90;;;;;;5029604;28;20490;-81
2023/09/15 17:39:26;;;;;;;8.53;7.73;;;25.10;99.90;;;;;;5023028;28;20479;-81
2023/09/15 17:42:18;;;;;;;8.40;7.70;;;25.00;99.90;;;;;;5020830;28;20455;-81
2023/09/15 17:44:57;;;;;;;8.10;7.50;;;24.90;99.90;;;;;;5019723;28;20475;-80
2023/09/15 17:51:08;;;;;;;10.27;8.47;;;24.50;99.90;;;;;;5015106;28;20423;-81
2023/09/15 17:53:42;;;;;;;9.03;8.30;;;24.40;99.90;;;;;;5016856;28;20505;-80
2023/09/15 17:56:28;;;;;;;9.90;8.80;;;24.30;99.90;;;;;;5018156;28;20446;-80
2023/09/15 17:59:06;;;;;;;9.17;8.47;;;24.30;99.90;;;;;;5020495;28;20490;-81
2023/09/15 18:01:51;;;;;;;12.57;9.83;;;24.20;99.90;;;;;;5020247;28;20467;-82
2023/09/15 18:04:27;;;;;;;11.50;9.47;;;24.10;99.90;;;;;;5047048;22;20486;-83
2023/09/15 18:07:05;;;;;;;9.23;8.07;;;24.10;99.90;;;;;;5057879;28;20452;-81
2023/09/15 18:09:50;;;;;;;9.67;8.60;;;24.00;99.90;;;;;;5059820;28;20437;-82
2023/09/15 18:12:24;;;;;;;9.40;8.60;;;23.90;99.90;;;;;;5058943;28;20473;-80
2023/09/15 18:15:03;;;;;;;9.83;8.03;;;23.80;99.90;;;;;;5059289;28;20465;-81
2023/09/15 18:17:39;;;;;;;10.13;9.17;;;23.70;99.90;;;;;;5060434;28;20536;-82
2023/09/15 18:20:17;;;;;;;10.03;9.23;;;23.70;99.90;;;;;;5058209;28;20509;-81
2023/09/15 18:22:51;;;;;;;9.13;8.43;;;23.60;99.90;;;;;;5060817;28;20446;-80
2023/09/15 18:25:34;;;;;;;9.73;8.93;;;23.50;99.90;;;;;;5039466;28;20993;-80
2023/09/15 18:28:22;;;;;;;10.13;9.33;;;23.50;99.90;;;;;;5058715;28;20445;-79
2023/09/15 18:31:07;;;;;;;10.10;9.20;;;23.40;99.90;;;;;;5059036;28;20460;-80
2023/09/15 18:34:17;;;;;;;8.60;7.97;;;23.30;99.90;;;;;;5061030;28;20437;-79
2023/09/15 18:37:26;;;;;;;10.10;9.30;;;23.40;99.90;;;;;;5066286;28;20456;-81
2023/09/15 18:40:22;;;;;;;9.50;8.67;;;23.20;99.90;;;;;;5060150;28;20488;-81
2023/09/15 18:43:29;;;;;;;9.87;9.07;;;23.10;99.90;;;;;;5060625;28;20450;-80
2023/09/15 18:46:13;;;;;;;10.03;9.23;;;23.10;99.90;;;;;;5062301;28;20465;-80
2023/09/15 18:49:09;;;;;;;10.33;9.33;;;23.10;99.90;;;;;;5060419;28;20448;-83
2023/09/15 18:51:51;;;;;;;10.30;9.37;;;23.00;99.90;;;;;;5061538;28;20451;-81
2023/09/15 18:54:51;;;;;;;10.40;9.40;;;22.90;99.90;;;;;;5056934;28;20453;-80
2023/09/15 18:57:40;;;;;;;11.10;10.10;;;22.80;99.90;;;;;;5058033;28;20442;-79
2023/09/15 19:03:44;;;;;;;11.00;10.10;;;22.60;99.90;;;;;;5064303;28;20444;-79
2023/09/15 19:06:37;;;;;;;10.57;9.57;;;22.50;99.90;;;;;;5069639;28;20537;-79
2023/09/15 19:15:42;;;;;;;11.03;10.13;;;22.40;99.90;;;;;;5074629;28;20497;-80
2023/09/15 19:21:46;;;;;;;10.70;9.73;;;22.20;99.90;;;;;;5075798;28;20465;-77
2023/09/15 19:24:48;;;;;;;10.87;9.97;;;22.10;99.90;;;;;;5074895;28;20493;-79